Slave Lake Airport
CYZH : rendu visible

Aérodrome :











RETROUVEZ-NOUS SUR...

 
LOGIN :

S'inscrire | Disclaimer

   EN    FR    IT 

 









Légende :    VFR   VFR Marginal   IFR   IFR Intensif   IFR Très Intensif
Visi : 
Plafond : 
>= 8 km
>= 3000ft
5 à 8 km
1000 à 3000 ft
1500m à 5 km
500 à 1000 ft
800 à 1500m
200 à 500 ft
< 800m
< 200 ft
Symboles :   Orages  Brouillard  Fortes neiges  Fortes précipitations  Vent > 20 kt






- Altitude de l'aérodrome : 1912 ft
- Code IATA : YZH


CYZH - Slave Lake

DERNIER METAR :
  • 121037Z AUTO 29009KT 9SM -SN OVC050 M02/M03 A2982 RMK SLP135

METARs EXPIRÉS :
  • 121000Z AUTO 27010KT 9SM BKN065 OVC083 M02/M04 A2982 RMK SLP137
  • 120900Z AUTO 29004KT 9SM OVC065 M04/M06 A2984 RMK SLP146
  • 120800Z AUTO 28010KT 9SM SCT080 BKN120 BKN200 OVC220 M05/M08 A2986 RMK SLP155

TAF TAF CYZH
Valide du 12 à 07h jusqu'au 12 à 19h UTC


120638Z 1207/1219 29007KT P6SM OVC080
FM120800 28008KT P6SM FEW020 BKN080
TEMPO 1208/1210 4SM -SN BKN020 OVC060
FM121000 28008KT 6SM -SN OVC025
TEMPO 1210/1215 2SM -SN VV015
FM121500 31010KT P6SM FEW020 BKN040
TEMPO 1215/1219 5SM -SN BKN020 OVC030 RMK FCST BASED ON AUTO OBS. NXT FCST BY 121300Z



MET'MAP, la Météo Aéronautique d'un coup d'oeil ! - Copyright ORBIFLY Décembre 2007 - Disclaimer

ORBIFLY MET'MAP TEAM :

Programmation & Développement : Alexandra Zaïnal
Conception & Développement : Baudouin d'Aumeries
Co-Programmation & Développement : Marc-Olivier Méhu
Soutien technique & logistique : Manuel Goepfert

Contact : metmap@orbifly.com




SOURCES & CREDITS :

   NOAA       Earth
Advisory